sensor_id;sensor_type;location;lat;lon;timestamp;P1;durP1;ratioP1;P2;durP2;ratioP2
51216;SDS011;37283;49.760;8.648;2022-07-29T00:00:55;5.35;;;1.73;;
51216;SDS011;37283;49.760;8.648;2022-07-29T00:03:22;4.65;;;1.65;;
51216;SDS011;37283;49.760;8.648;2022-07-29T00:05:48;3.03;;;1.50;;
51216;SDS011;37283;49.760;8.648;2022-07-29T00:08:15;3.30;;;1.55;;
51216;SDS011;37283;49.760;8.648;2022-07-29T00:10:41;3.17;;;1.70;;
51216;SDS011;37283;49.760;8.648;2022-07-29T00:13:08;2.28;;;1.33;;
51216;SDS011;37283;49.760;8.648;2022-07-29T00:15:34;2.92;;;1.70;;
51216;SDS011;37283;49.760;8.648;2022-07-29T00:18:01;2.90;;;1.50;;
51216;SDS011;37283;49.760;8.648;2022-07-29T00:20:28;2.65;;;1.52;;
51216;SDS011;37283;49.760;8.648;2022-07-29T00:22:54;3.60;;;1.55;;
51216;SDS011;37283;49.760;8.648;2022-07-29T00:25:21;3.72;;;1.50;;
51216;SDS011;37283;49.760;8.648;2022-07-29T00:27:48;5.47;;;2.20;;
51216;SDS011;37283;49.760;8.648;2022-07-29T00:30:14;8.32;;;1.60;;
51216;SDS011;37283;49.760;8.648;2022-07-29T00:32:41;2.35;;;1.40;;
51216;SDS011;37283;49.760;8.648;2022-07-29T00:35:07;6.90;;;1.55;;
51216;SDS011;37283;49.760;8.648;2022-07-29T00:37:53;3.85;;;1.60;;
51216;SDS011;37283;49.760;8.648;2022-07-29T00:40:20;2.60;;;1.60;;
51216;SDS011;37283;49.760;8.648;2022-07-29T00:42:49;4.97;;;1.50;;
51216;SDS011;37283;49.760;8.648;2022-07-29T00:45:16;3.80;;;1.55;;
51216;SDS011;37283;49.760;8.648;2022-07-29T00:47:44;3.10;;;1.70;;
51216;SDS011;37283;49.760;8.648;2022-07-29T00:50:11;3.45;;;1.80;;
51216;SDS011;37283;49.760;8.648;2022-07-29T00:52:39;2.22;;;1.40;;
51216;SDS011;37283;49.760;8.648;2022-07-29T00:55:07;3.22;;;1.35;;
51216;SDS011;37283;49.760;8.648;2022-07-29T00:57:36;2.78;;;1.50;;
51216;SDS011;37283;49.760;8.648;2022-07-29T01:00:06;4.63;;;1.70;;
51216;SDS011;37283;49.760;8.648;2022-07-29T01:02:35;4.63;;;1.60;;
51216;SDS011;37283;49.760;8.648;2022-07-29T01:05:02;3.25;;;1.90;;
51216;SDS011;37283;49.760;8.648;2022-07-29T01:07:30;2.40;;;1.70;;
51216;SDS011;37283;49.760;8.648;2022-07-29T01:09:58;5.05;;;1.58;;
51216;SDS011;37283;49.760;8.648;2022-07-29T01:12:25;3.63;;;1.50;;
51216;SDS011;37283;49.760;8.648;2022-07-29T01:14:53;2.13;;;1.40;;
51216;SDS011;37283;49.760;8.648;2022-07-29T01:17:26;7.60;;;1.77;;
51216;SDS011;37283;49.760;8.648;2022-07-29T01:25:43;7.18;;;1.92;;
51216;SDS011;37283;49.760;8.648;2022-07-29T01:28:33;5.13;;;1.60;;
51216;SDS011;37283;49.760;8.648;2022-07-29T01:31:33;3.90;;;1.50;;
51216;SDS011;37283;49.760;8.648;2022-07-29T01:34:27;3.92;;;1.80;;
51216;SDS011;37283;49.760;8.648;2022-07-29T01:39:31;4.88;;;1.83;;
51216;SDS011;37283;49.760;8.648;2022-07-29T01:44:40;4.20;;;1.65;;
51216;SDS011;37283;49.760;8.648;2022-07-29T01:47:13;5.90;;;1.63;;
51216;SDS011;37283;49.760;8.648;2022-07-29T01:49:43;2.47;;;1.50;;
51216;SDS011;37283;49.760;8.648;2022-07-29T01:52:15;4.70;;;1.70;;
51216;SDS011;37283;49.760;8.648;2022-07-29T01:54:54;5.80;;;2.05;;
51216;SDS011;37283;49.760;8.648;2022-07-29T01:57:24;4.75;;;1.73;;
51216;SDS011;37283;49.760;8.648;2022-07-29T01:59:52;2.85;;;1.70;;
51216;SDS011;37283;49.760;8.648;2022-07-29T02:02:19;5.85;;;1.85;;
51216;SDS011;37283;49.760;8.648;2022-07-29T02:04:47;5.57;;;1.73;;
51216;SDS011;37283;49.760;8.648;2022-07-29T02:07:17;3.05;;;1.63;;
51216;SDS011;37283;49.760;8.648;2022-07-29T02:09:44;6.45;;;1.80;;
51216;SDS011;37283;49.760;8.648;2022-07-29T02:12:12;7.20;;;1.80;;
51216;SDS011;37283;49.760;8.648;2022-07-29T02:14:42;4.82;;;1.70;;
51216;SDS011;37283;49.760;8.648;2022-07-29T02:17:12;4.55;;;1.75;;
51216;SDS011;37283;49.760;8.648;2022-07-29T02:19:39;4.03;;;1.60;;
51216;SDS011;37283;49.760;8.648;2022-07-29T02:22:07;4.88;;;1.80;;
51216;SDS011;37283;49.760;8.648;2022-07-29T02:24:35;4.30;;;1.75;;
51216;SDS011;37283;49.760;8.648;2022-07-29T02:27:03;3.35;;;1.88;;
51216;SDS011;37283;49.760;8.648;2022-07-29T02:29:30;3.53;;;1.80;;
51216;SDS011;37283;49.760;8.648;2022-07-29T02:31:58;5.07;;;2.07;;
51216;SDS011;37283;49.760;8.648;2022-07-29T02:34:25;6.05;;;1.70;;
51216;SDS011;37283;49.760;8.648;2022-07-29T02:36:53;5.25;;;2.03;;
51216;SDS011;37283;49.760;8.648;2022-07-29T02:39:20;4.32;;;2.05;;
51216;SDS011;37283;49.760;8.648;2022-07-29T02:41:48;6.18;;;1.90;;
51216;SDS011;37283;49.760;8.648;2022-07-29T02:46:46;6.50;;;2.25;;
51216;SDS011;37283;49.760;8.648;2022-07-29T02:51:57;6.30;;;2.17;;
51216;SDS011;37283;49.760;8.648;2022-07-29T02:54:50;4.22;;;1.92;;
51216;SDS011;37283;49.760;8.648;2022-07-29T02:57:32;8.63;;;2.10;;
51216;SDS011;37283;49.760;8.648;2022-07-29T03:00:19;7.75;;;2.00;;
51216;SDS011;37283;49.760;8.648;2022-07-29T03:02:49;3.40;;;1.83;;
51216;SDS011;37283;49.760;8.648;2022-07-29T03:05:18;6.57;;;2.03;;
51216;SDS011;37283;49.760;8.648;2022-07-29T03:07:47;6.28;;;2.20;;
51216;SDS011;37283;49.760;8.648;2022-07-29T03:10:17;7.43;;;2.22;;
51216;SDS011;37283;49.760;8.648;2022-07-29T03:12:44;6.53;;;2.28;;
51216;SDS011;37283;49.760;8.648;2022-07-29T03:15:11;5.22;;;2.13;;
51216;SDS011;37283;49.760;8.648;2022-07-29T03:17:39;5.03;;;2.17;;
51216;SDS011;37283;49.760;8.648;2022-07-29T03:20:06;5.18;;;2.17;;
51216;SDS011;37283;49.760;8.648;2022-07-29T03:22:38;8.95;;;2.42;;
51216;SDS011;37283;49.760;8.648;2022-07-29T03:25:10;5.07;;;2.03;;
51216;SDS011;37283;49.760;8.648;2022-07-29T03:27:37;4.50;;;2.40;;
51216;SDS011;37283;49.760;8.648;2022-07-29T03:30:04;3.75;;;1.90;;
51216;SDS011;37283;49.760;8.648;2022-07-29T03:32:34;8.23;;;2.20;;
51216;SDS011;37283;49.760;8.648;2022-07-29T03:35:01;5.45;;;2.40;;
51216;SDS011;37283;49.760;8.648;2022-07-29T03:37:28;6.75;;;2.63;;
51216;SDS011;37283;49.760;8.648;2022-07-29T03:39:57;8.90;;;2.27;;
51216;SDS011;37283;49.760;8.648;2022-07-29T03:42:24;5.70;;;2.28;;
51216;SDS011;37283;49.760;8.648;2022-07-29T03:45:00;7.30;;;2.15;;
51216;SDS011;37283;49.760;8.648;2022-07-29T03:47:28;5.22;;;2.25;;
51216;SDS011;37283;49.760;8.648;2022-07-29T03:50:16;5.00;;;2.30;;
51216;SDS011;37283;49.760;8.648;2022-07-29T03:52:45;6.88;;;2.30;;
51216;SDS011;37283;49.760;8.648;2022-07-29T03:55:12;6.65;;;2.28;;
51216;SDS011;37283;49.760;8.648;2022-07-29T03:57:38;9.00;;;2.67;;
51216;SDS011;37283;49.760;8.648;2022-07-29T04:00:06;6.88;;;2.20;;
51216;SDS011;37283;49.760;8.648;2022-07-29T04:02:33;6.53;;;2.30;;
51216;SDS011;37283;49.760;8.648;2022-07-29T04:04:59;5.93;;;2.40;;
51216;SDS011;37283;49.760;8.648;2022-07-29T04:07:26;5.30;;;2.40;;
51216;SDS011;37283;49.760;8.648;2022-07-29T04:09:52;6.22;;;2.20;;
51216;SDS011;37283;49.760;8.648;2022-07-29T04:12:19;3.85;;;2.25;;
51216;SDS011;37283;49.760;8.648;2022-07-29T04:14:47;6.15;;;2.53;;
51216;SDS011;37283;49.760;8.648;2022-07-29T04:17:13;6.25;;;2.17;;
51216;SDS011;37283;49.760;8.648;2022-07-29T04:19:40;6.82;;;2.70;;
51216;SDS011;37283;49.760;8.648;2022-07-29T04:22:06;7.53;;;2.83;;
51216;SDS011;37283;49.760;8.648;2022-07-29T04:24:33;7.47;;;2.22;;
51216;SDS011;37283;49.760;8.648;2022-07-29T04:26:59;5.93;;;2.50;;
51216;SDS011;37283;49.760;8.648;2022-07-29T04:29:25;5.82;;;2.47;;
51216;SDS011;37283;49.760;8.648;2022-07-29T04:31:52;7.38;;;2.40;;
51216;SDS011;37283;49.760;8.648;2022-07-29T04:34:18;6.20;;;2.63;;
51216;SDS011;37283;49.760;8.648;2022-07-29T04:36:46;4.32;;;2.25;;
51216;SDS011;37283;49.760;8.648;2022-07-29T04:39:12;5.57;;;2.10;;
51216;SDS011;37283;49.760;8.648;2022-07-29T04:41:45;8.23;;;2.38;;
51216;SDS011;37283;49.760;8.648;2022-07-29T04:44:13;10.27;;;2.65;;
51216;SDS011;37283;49.760;8.648;2022-07-29T04:46:40;7.50;;;2.67;;
51216;SDS011;37283;49.760;8.648;2022-07-29T04:49:06;3.38;;;1.85;;
51216;SDS011;37283;49.760;8.648;2022-07-29T04:51:34;4.93;;;2.33;;
51216;SDS011;37283;49.760;8.648;2022-07-29T04:54:01;5.45;;;2.40;;
51216;SDS011;37283;49.760;8.648;2022-07-29T04:56:28;5.75;;;2.53;;
51216;SDS011;37283;49.760;8.648;2022-07-29T04:58:54;9.68;;;2.42;;
51216;SDS011;37283;49.760;8.648;2022-07-29T05:01:21;5.13;;;2.42;;
51216;SDS011;37283;49.760;8.648;2022-07-29T05:03:47;5.90;;;2.42;;
51216;SDS011;37283;49.760;8.648;2022-07-29T05:06:14;4.30;;;2.20;;
51216;SDS011;37283;49.760;8.648;2022-07-29T05:08:41;5.80;;;2.38;;
51216;SDS011;37283;49.760;8.648;2022-07-29T05:11:07;8.15;;;2.50;;
51216;SDS011;37283;49.760;8.648;2022-07-29T05:13:39;5.72;;;2.60;;
51216;SDS011;37283;49.760;8.648;2022-07-29T05:16:12;6.32;;;2.42;;
51216;SDS011;37283;49.760;8.648;2022-07-29T05:18:39;4.03;;;2.35;;
51216;SDS011;37283;49.760;8.648;2022-07-29T05:21:05;6.68;;;2.80;;
51216;SDS011;37283;49.760;8.648;2022-07-29T05:23:32;5.38;;;2.63;;
51216;SDS011;37283;49.760;8.648;2022-07-29T05:25:58;5.63;;;2.60;;
51216;SDS011;37283;49.760;8.648;2022-07-29T05:28:25;8.82;;;2.88;;
51216;SDS011;37283;49.760;8.648;2022-07-29T05:30:51;5.80;;;2.58;;
51216;SDS011;37283;49.760;8.648;2022-07-29T05:33:18;5.60;;;2.70;;
51216;SDS011;37283;49.760;8.648;2022-07-29T05:36:03;5.97;;;2.08;;
51216;SDS011;37283;49.760;8.648;2022-07-29T05:38:36;5.00;;;2.20;;
51216;SDS011;37283;49.760;8.648;2022-07-29T05:41:03;4.82;;;2.42;;
51216;SDS011;37283;49.760;8.648;2022-07-29T05:43:30;7.60;;;2.45;;
51216;SDS011;37283;49.760;8.648;2022-07-29T05:45:57;9.35;;;3.08;;
51216;SDS011;37283;49.760;8.648;2022-07-29T05:48:24;5.68;;;2.60;;
51216;SDS011;37283;49.760;8.648;2022-07-29T05:50:51;8.57;;;2.80;;
51216;SDS011;37283;49.760;8.648;2022-07-29T05:53:18;4.38;;;2.50;;
51216;SDS011;37283;49.760;8.648;2022-07-29T05:55:46;6.80;;;2.93;;
51216;SDS011;37283;49.760;8.648;2022-07-29T05:58:13;6.40;;;2.90;;
51216;SDS011;37283;49.760;8.648;2022-07-29T06:00:40;7.15;;;2.53;;
51216;SDS011;37283;49.760;8.648;2022-07-29T06:03:06;8.38;;;2.55;;
51216;SDS011;37283;49.760;8.648;2022-07-29T06:05:33;4.90;;;2.45;;
51216;SDS011;37283;49.760;8.648;2022-07-29T06:07:59;7.22;;;2.42;;
51216;SDS011;37283;49.760;8.648;2022-07-29T06:10:26;7.82;;;2.55;;
51216;SDS011;37283;49.760;8.648;2022-07-29T06:12:53;8.80;;;2.65;;
51216;SDS011;37283;49.760;8.648;2022-07-29T06:15:19;7.45;;;2.80;;
51216;SDS011;37283;49.760;8.648;2022-07-29T06:17:46;6.60;;;2.90;;
51216;SDS011;37283;49.760;8.648;2022-07-29T06:20:26;4.85;;;2.75;;
51216;SDS011;37283;49.760;8.648;2022-07-29T06:22:56;6.30;;;2.60;;
51216;SDS011;37283;49.760;8.648;2022-07-29T06:25:23;6.45;;;2.75;;
51216;SDS011;37283;49.760;8.648;2022-07-29T06:27:49;6.88;;;2.78;;
51216;SDS011;37283;49.760;8.648;2022-07-29T06:30:16;4.18;;;2.78;;
51216;SDS011;37283;49.760;8.648;2022-07-29T06:32:43;5.80;;;2.55;;
51216;SDS011;37283;49.760;8.648;2022-07-29T06:35:09;6.22;;;2.63;;
51216;SDS011;37283;49.760;8.648;2022-07-29T06:37:56;8.43;;;3.22;;
51216;SDS011;37283;49.760;8.648;2022-07-29T06:40:25;8.63;;;2.55;;
51216;SDS011;37283;49.760;8.648;2022-07-29T06:43:10;6.88;;;3.05;;
51216;SDS011;37283;49.760;8.648;2022-07-29T06:45:37;7.95;;;2.80;;
51216;SDS011;37283;49.760;8.648;2022-07-29T06:48:07;6.10;;;2.78;;
51216;SDS011;37283;49.760;8.648;2022-07-29T06:50:34;7.80;;;2.75;;
51216;SDS011;37283;49.760;8.648;2022-07-29T06:53:00;5.25;;;2.75;;
51216;SDS011;37283;49.760;8.648;2022-07-29T06:55:27;4.72;;;2.50;;
51216;SDS011;37283;49.760;8.648;2022-07-29T06:57:53;4.47;;;2.70;;
51216;SDS011;37283;49.760;8.648;2022-07-29T07:00:20;3.95;;;2.38;;
51216;SDS011;37283;49.760;8.648;2022-07-29T07:02:46;11.25;;;2.53;;
51216;SDS011;37283;49.760;8.648;2022-07-29T07:05:13;5.43;;;3.00;;
51216;SDS011;37283;49.760;8.648;2022-07-29T07:07:39;5.50;;;2.35;;
51216;SDS011;37283;49.760;8.648;2022-07-29T07:10:06;8.95;;;2.40;;
51216;SDS011;37283;49.760;8.648;2022-07-29T07:12:32;5.57;;;2.58;;
51216;SDS011;37283;49.760;8.648;2022-07-29T07:14:59;6.32;;;2.55;;
51216;SDS011;37283;49.760;8.648;2022-07-29T07:17:26;5.53;;;2.63;;
51216;SDS011;37283;49.760;8.648;2022-07-29T07:19:53;6.68;;;2.80;;
51216;SDS011;37283;49.760;8.648;2022-07-29T07:22:19;3.92;;;2.38;;
51216;SDS011;37283;49.760;8.648;2022-07-29T07:24:46;6.47;;;2.92;;
51216;SDS011;37283;49.760;8.648;2022-07-29T07:27:12;19.52;;;3.35;;
51216;SDS011;37283;49.760;8.648;2022-07-29T07:29:39;15.93;;;3.20;;
51216;SDS011;37283;49.760;8.648;2022-07-29T07:32:09;8.85;;;2.55;;
51216;SDS011;37283;49.760;8.648;2022-07-29T07:34:36;7.25;;;2.72;;
51216;SDS011;37283;49.760;8.648;2022-07-29T07:37:04;5.55;;;3.05;;
51216;SDS011;37283;49.760;8.648;2022-07-29T07:39:30;5.50;;;2.60;;
51216;SDS011;37283;49.760;8.648;2022-07-29T07:41:57;4.90;;;2.65;;
51216;SDS011;37283;49.760;8.648;2022-07-29T07:44:23;5.32;;;2.70;;
51216;SDS011;37283;49.760;8.648;2022-07-29T07:46:50;5.80;;;2.85;;
51216;SDS011;37283;49.760;8.648;2022-07-29T07:49:16;5.28;;;2.80;;
51216;SDS011;37283;49.760;8.648;2022-07-29T07:51:43;8.30;;;2.58;;
51216;SDS011;37283;49.760;8.648;2022-07-29T07:54:16;9.32;;;2.72;;
51216;SDS011;37283;49.760;8.648;2022-07-29T07:56:43;7.07;;;2.60;;
51216;SDS011;37283;49.760;8.648;2022-07-29T07:59:09;4.55;;;3.45;;
51216;SDS011;37283;49.760;8.648;2022-07-29T08:01:36;4.22;;;2.50;;
51216;SDS011;37283;49.760;8.648;2022-07-29T08:04:21;6.63;;;2.55;;
51216;SDS011;37283;49.760;8.648;2022-07-29T08:06:54;7.10;;;2.70;;
51216;SDS011;37283;49.760;8.648;2022-07-29T08:09:21;5.57;;;2.75;;
51216;SDS011;37283;49.760;8.648;2022-07-29T08:11:55;5.18;;;2.80;;
51216;SDS011;37283;49.760;8.648;2022-07-29T08:14:22;4.07;;;2.50;;
51216;SDS011;37283;49.760;8.648;2022-07-29T08:16:49;7.97;;;2.75;;
51216;SDS011;37283;49.760;8.648;2022-07-29T08:19:15;7.95;;;2.75;;
51216;SDS011;37283;49.760;8.648;2022-07-29T08:21:42;7.88;;;2.50;;
51216;SDS011;37283;49.760;8.648;2022-07-29T08:24:09;5.90;;;2.50;;
51216;SDS011;37283;49.760;8.648;2022-07-29T08:26:53;4.57;;;2.58;;
51216;SDS011;37283;49.760;8.648;2022-07-29T08:29:20;3.88;;;2.35;;
51216;SDS011;37283;49.760;8.648;2022-07-29T08:31:46;6.60;;;2.75;;
51216;SDS011;37283;49.760;8.648;2022-07-29T08:34:13;10.60;;;3.00;;
51216;SDS011;37283;49.760;8.648;2022-07-29T08:36:39;6.45;;;2.85;;
51216;SDS011;37283;49.760;8.648;2022-07-29T08:39:06;5.25;;;2.40;;
51216;SDS011;37283;49.760;8.648;2022-07-29T08:41:32;7.38;;;2.83;;
51216;SDS011;37283;49.760;8.648;2022-07-29T08:43:59;6.25;;;2.65;;
51216;SDS011;37283;49.760;8.648;2022-07-29T08:46:25;4.93;;;2.85;;
51216;SDS011;37283;49.760;8.648;2022-07-29T08:48:55;5.68;;;2.60;;
51216;SDS011;37283;49.760;8.648;2022-07-29T08:51:22;10.15;;;3.00;;
51216;SDS011;37283;49.760;8.648;2022-07-29T08:53:49;4.00;;;2.65;;
51216;SDS011;37283;49.760;8.648;2022-07-29T08:56:16;5.63;;;2.95;;
51216;SDS011;37283;49.760;8.648;2022-07-29T08:58:47;3.78;;;2.58;;
51216;SDS011;37283;49.760;8.648;2022-07-29T09:01:22;7.28;;;3.08;;
51216;SDS011;37283;49.760;8.648;2022-07-29T09:04:09;6.57;;;2.92;;
51216;SDS011;37283;49.760;8.648;2022-07-29T09:06:37;4.75;;;2.40;;
51216;SDS011;37283;49.760;8.648;2022-07-29T09:09:07;5.50;;;2.60;;
51216;SDS011;37283;49.760;8.648;2022-07-29T09:11:33;6.60;;;2.50;;
51216;SDS011;37283;49.760;8.648;2022-07-29T09:14:00;5.40;;;2.50;;
51216;SDS011;37283;49.760;8.648;2022-07-29T09:16:43;6.35;;;2.88;;
51216;SDS011;37283;49.760;8.648;2022-07-29T09:19:19;5.07;;;2.70;;
51216;SDS011;37283;49.760;8.648;2022-07-29T09:22:10;10.15;;;2.80;;
51216;SDS011;37283;49.760;8.648;2022-07-29T09:24:39;5.25;;;2.80;;
51216;SDS011;37283;49.760;8.648;2022-07-29T09:27:10;6.05;;;2.80;;
51216;SDS011;37283;49.760;8.648;2022-07-29T09:29:44;5.40;;;2.70;;
51216;SDS011;37283;49.760;8.648;2022-07-29T09:32:11;6.43;;;2.88;;
51216;SDS011;37283;49.760;8.648;2022-07-29T09:34:38;6.75;;;2.83;;
51216;SDS011;37283;49.760;8.648;2022-07-29T09:37:04;4.88;;;2.92;;
51216;SDS011;37283;49.760;8.648;2022-07-29T09:42:02;6.97;;;2.78;;
51216;SDS011;37283;49.760;8.648;2022-07-29T09:47:46;5.93;;;3.08;;
51216;SDS011;37283;49.760;8.648;2022-07-29T09:50:15;6.22;;;2.70;;
51216;SDS011;37283;49.760;8.648;2022-07-29T09:52:49;5.85;;;2.70;;
51216;SDS011;37283;49.760;8.648;2022-07-29T09:55:17;5.55;;;2.90;;
51216;SDS011;37283;49.760;8.648;2022-07-29T09:57:45;5.28;;;2.42;;
51216;SDS011;37283;49.760;8.648;2022-07-29T10:00:13;5.88;;;2.88;;
51216;SDS011;37283;49.760;8.648;2022-07-29T10:02:42;5.47;;;2.95;;
51216;SDS011;37283;49.760;8.648;2022-07-29T10:05:25;5.53;;;2.92;;
51216;SDS011;37283;49.760;8.648;2022-07-29T10:08:02;4.22;;;2.67;;
51216;SDS011;37283;49.760;8.648;2022-07-29T10:10:29;6.82;;;2.90;;
51216;SDS011;37283;49.760;8.648;2022-07-29T10:13:00;5.63;;;2.53;;
51216;SDS011;37283;49.760;8.648;2022-07-29T10:15:37;3.70;;;2.78;;
51216;SDS011;37283;49.760;8.648;2022-07-29T10:18:07;9.55;;;3.50;;
51216;SDS011;37283;49.760;8.648;2022-07-29T10:20:35;7.55;;;3.15;;
51216;SDS011;37283;49.760;8.648;2022-07-29T10:23:01;3.78;;;2.90;;
51216;SDS011;37283;49.760;8.648;2022-07-29T10:25:28;38.00;;;5.22;;
51216;SDS011;37283;49.760;8.648;2022-07-29T10:27:55;11.60;;;3.30;;
51216;SDS011;37283;49.760;8.648;2022-07-29T10:30:22;4.43;;;2.80;;
51216;SDS011;37283;49.760;8.648;2022-07-29T10:35:48;8.05;;;3.13;;
51216;SDS011;37283;49.760;8.648;2022-07-29T10:38:27;5.93;;;3.13;;
51216;SDS011;37283;49.760;8.648;2022-07-29T10:41:56;7.50;;;3.15;;
51216;SDS011;37283;49.760;8.648;2022-07-29T10:44:28;7.32;;;2.97;;
51216;SDS011;37283;49.760;8.648;2022-07-29T10:46:55;5.55;;;2.85;;
51216;SDS011;37283;49.760;8.648;2022-07-29T10:49:23;5.57;;;2.97;;
51216;SDS011;37283;49.760;8.648;2022-07-29T10:51:53;5.85;;;3.05;;
51216;SDS011;37283;49.760;8.648;2022-07-29T10:59:49;4.53;;;2.92;;
51216;SDS011;37283;49.760;8.648;2022-07-29T11:05:12;5.85;;;2.85;;
51216;SDS011;37283;49.760;8.648;2022-07-29T11:08:16;6.80;;;3.03;;
51216;SDS011;37283;49.760;8.648;2022-07-29T11:11:30;12.68;;;3.22;;
51216;SDS011;37283;49.760;8.648;2022-07-29T11:13:48;4.75;;;2.85;;
51216;SDS011;37283;49.760;8.648;2022-07-29T11:16:18;4.40;;;2.90;;
51216;SDS011;37283;49.760;8.648;2022-07-29T11:24:30;5.55;;;2.90;;
51216;SDS011;37283;49.760;8.648;2022-07-29T11:27:14;6.85;;;3.08;;
51216;SDS011;37283;49.760;8.648;2022-07-29T11:30:02;7.75;;;2.97;;
51216;SDS011;37283;49.760;8.648;2022-07-29T11:32:40;4.90;;;2.70;;
51216;SDS011;37283;49.760;8.648;2022-07-29T11:37:45;8.43;;;2.95;;
51216;SDS011;37283;49.760;8.648;2022-07-29T11:40:32;4.22;;;2.85;;
51216;SDS011;37283;49.760;8.648;2022-07-29T11:42:59;3.90;;;2.72;;
51216;SDS011;37283;49.760;8.648;2022-07-29T11:45:26;5.28;;;3.00;;
51216;SDS011;37283;49.760;8.648;2022-07-29T11:48:14;11.07;;;3.00;;
51216;SDS011;37283;49.760;8.648;2022-07-29T11:50:58;7.38;;;2.83;;
51216;SDS011;37283;49.760;8.648;2022-07-29T11:53:25;6.22;;;2.72;;
51216;SDS011;37283;49.760;8.648;2022-07-29T11:55:58;3.53;;;2.90;;
51216;SDS011;37283;49.760;8.648;2022-07-29T11:58:24;5.50;;;3.10;;
51216;SDS011;37283;49.760;8.648;2022-07-29T12:00:52;6.38;;;2.65;;
51216;SDS011;37283;49.760;8.648;2022-07-29T12:03:27;4.30;;;3.03;;
51216;SDS011;37283;49.760;8.648;2022-07-29T12:06:14;7.50;;;2.65;;
51216;SDS011;37283;49.760;8.648;2022-07-29T12:08:43;9.52;;;3.30;;
51216;SDS011;37283;49.760;8.648;2022-07-29T12:11:17;4.32;;;3.00;;
51216;SDS011;37283;49.760;8.648;2022-07-29T12:13:47;5.55;;;2.88;;
51216;SDS011;37283;49.760;8.648;2022-07-29T12:16:14;12.10;;;3.10;;
51216;SDS011;37283;49.760;8.648;2022-07-29T12:18:57;5.43;;;3.35;;
51216;SDS011;37283;49.760;8.648;2022-07-29T12:21:25;6.13;;;2.63;;
51216;SDS011;37283;49.760;8.648;2022-07-29T12:23:54;7.18;;;2.75;;
51216;SDS011;37283;49.760;8.648;2022-07-29T12:26:27;5.95;;;3.00;;
51216;SDS011;37283;49.760;8.648;2022-07-29T12:28:53;5.68;;;2.80;;
51216;SDS011;37283;49.760;8.648;2022-07-29T12:31:21;6.97;;;2.95;;
51216;SDS011;37283;49.760;8.648;2022-07-29T12:34:08;5.93;;;3.17;;
51216;SDS011;37283;49.760;8.648;2022-07-29T12:36:36;4.63;;;2.90;;
51216;SDS011;37283;49.760;8.648;2022-07-29T12:39:02;6.03;;;3.13;;
51216;SDS011;37283;49.760;8.648;2022-07-29T12:41:29;5.28;;;3.00;;
51216;SDS011;37283;49.760;8.648;2022-07-29T12:43:56;6.07;;;2.97;;
51216;SDS011;37283;49.760;8.648;2022-07-29T12:46:23;4.32;;;3.17;;
51216;SDS011;37283;49.760;8.648;2022-07-29T12:48:53;8.10;;;2.75;;
51216;SDS011;37283;49.760;8.648;2022-07-29T12:51:36;9.65;;;3.10;;
51216;SDS011;37283;49.760;8.648;2022-07-29T12:54:08;4.72;;;2.90;;
51216;SDS011;37283;49.760;8.648;2022-07-29T12:56:37;6.25;;;2.60;;
51216;SDS011;37283;49.760;8.648;2022-07-29T12:59:16;6.30;;;2.58;;
51216;SDS011;37283;49.760;8.648;2022-07-29T13:01:48;3.63;;;2.50;;
51216;SDS011;37283;49.760;8.648;2022-07-29T13:04:26;3.80;;;2.53;;
51216;SDS011;37283;49.760;8.648;2022-07-29T13:06:58;5.15;;;2.70;;
51216;SDS011;37283;49.760;8.648;2022-07-29T13:09:44;6.13;;;2.83;;
51216;SDS011;37283;49.760;8.648;2022-07-29T13:12:14;5.32;;;2.67;;
51216;SDS011;37283;49.760;8.648;2022-07-29T13:14:44;9.25;;;3.13;;
51216;SDS011;37283;49.760;8.648;2022-07-29T13:17:13;4.45;;;2.30;;
51216;SDS011;37283;49.760;8.648;2022-07-29T13:19:47;9.57;;;2.60;;
51216;SDS011;37283;49.760;8.648;2022-07-29T13:22:15;4.18;;;2.50;;
51216;SDS011;37283;49.760;8.648;2022-07-29T13:24:53;4.38;;;2.47;;
51216;SDS011;37283;49.760;8.648;2022-07-29T13:27:24;6.22;;;2.30;;
51216;SDS011;37283;49.760;8.648;2022-07-29T13:29:51;3.97;;;2.28;;
51216;SDS011;37283;49.760;8.648;2022-07-29T13:32:20;4.63;;;2.40;;
51216;SDS011;37283;49.760;8.648;2022-07-29T13:34:57;8.07;;;2.28;;
51216;SDS011;37283;49.760;8.648;2022-07-29T13:37:26;5.07;;;2.05;;
51216;SDS011;37283;49.760;8.648;2022-07-29T13:39:56;4.00;;;2.25;;
51216;SDS011;37283;49.760;8.648;2022-07-29T13:42:23;3.97;;;2.25;;
51216;SDS011;37283;49.760;8.648;2022-07-29T13:44:49;5.10;;;2.45;;
51216;SDS011;37283;49.760;8.648;2022-07-29T13:47:18;8.60;;;2.53;;
51216;SDS011;37283;49.760;8.648;2022-07-29T13:49:45;5.43;;;2.22;;
51216;SDS011;37283;49.760;8.648;2022-07-29T13:52:12;5.10;;;2.20;;
51216;SDS011;37283;49.760;8.648;2022-07-29T13:54:38;4.50;;;2.40;;
51216;SDS011;37283;49.760;8.648;2022-07-29T13:57:08;12.02;;;2.75;;
51216;SDS011;37283;49.760;8.648;2022-07-29T13:59:35;5.05;;;2.42;;
51216;SDS011;37283;49.760;8.648;2022-07-29T14:02:02;4.00;;;2.30;;
51216;SDS011;37283;49.760;8.648;2022-07-29T14:04:28;3.28;;;1.92;;
51216;SDS011;37283;49.760;8.648;2022-07-29T14:06:55;5.68;;;2.30;;
51216;SDS011;37283;49.760;8.648;2022-07-29T14:09:22;7.38;;;2.70;;
51216;SDS011;37283;49.760;8.648;2022-07-29T14:11:48;5.93;;;2.60;;
51216;SDS011;37283;49.760;8.648;2022-07-29T14:14:17;6.30;;;2.38;;
51216;SDS011;37283;49.760;8.648;2022-07-29T14:16:43;7.90;;;2.50;;
51216;SDS011;37283;49.760;8.648;2022-07-29T14:19:17;4.93;;;2.20;;
51216;SDS011;37283;49.760;8.648;2022-07-29T14:21:44;5.97;;;2.83;;
51216;SDS011;37283;49.760;8.648;2022-07-29T14:24:12;5.60;;;2.55;;
51216;SDS011;37283;49.760;8.648;2022-07-29T14:26:47;8.27;;;2.30;;
51216;SDS011;37283;49.760;8.648;2022-07-29T14:29:13;3.88;;;2.45;;
51216;SDS011;37283;49.760;8.648;2022-07-29T14:31:40;5.30;;;2.40;;
51216;SDS011;37283;49.760;8.648;2022-07-29T14:34:06;6.13;;;2.45;;
51216;SDS011;37283;49.760;8.648;2022-07-29T14:36:33;5.75;;;2.45;;
51216;SDS011;37283;49.760;8.648;2022-07-29T14:39:00;5.68;;;2.42;;
51216;SDS011;37283;49.760;8.648;2022-07-29T14:41:26;4.45;;;2.53;;
51216;SDS011;37283;49.760;8.648;2022-07-29T14:43:54;4.93;;;2.50;;
51216;SDS011;37283;49.760;8.648;2022-07-29T14:46:20;5.93;;;2.58;;
51216;SDS011;37283;49.760;8.648;2022-07-29T14:48:47;6.15;;;2.47;;
51216;SDS011;37283;49.760;8.648;2022-07-29T14:51:14;3.58;;;2.38;;
51216;SDS011;37283;49.760;8.648;2022-07-29T14:53:40;8.18;;;2.40;;
51216;SDS011;37283;49.760;8.648;2022-07-29T14:56:06;4.85;;;2.30;;
51216;SDS011;37283;49.760;8.648;2022-07-29T14:58:53;3.70;;;2.45;;
51216;SDS011;37283;49.760;8.648;2022-07-29T15:01:19;7.03;;;2.30;;
51216;SDS011;37283;49.760;8.648;2022-07-29T15:03:46;5.38;;;2.80;;
51216;SDS011;37283;49.760;8.648;2022-07-29T15:06:12;5.75;;;2.65;;
51216;SDS011;37283;49.760;8.648;2022-07-29T15:08:39;6.50;;;2.53;;
51216;SDS011;37283;49.760;8.648;2022-07-29T15:11:05;7.75;;;2.33;;
51216;SDS011;37283;49.760;8.648;2022-07-29T15:13:32;4.03;;;2.28;;
51216;SDS011;37283;49.760;8.648;2022-07-29T15:15:59;3.60;;;2.47;;
51216;SDS011;37283;49.760;8.648;2022-07-29T15:18:26;6.25;;;2.17;;
51216;SDS011;37283;49.760;8.648;2022-07-29T15:20:52;4.55;;;2.03;;
51216;SDS011;37283;49.760;8.648;2022-07-29T15:23:19;4.18;;;2.42;;
51216;SDS011;37283;49.760;8.648;2022-07-29T15:25:45;7.82;;;2.38;;
51216;SDS011;37283;49.760;8.648;2022-07-29T15:28:12;3.55;;;2.08;;
51216;SDS011;37283;49.760;8.648;2022-07-29T15:30:38;4.60;;;2.15;;
51216;SDS011;37283;49.760;8.648;2022-07-29T15:33:08;4.43;;;1.95;;
51216;SDS011;37283;49.760;8.648;2022-07-29T15:35:38;4.80;;;2.30;;
51216;SDS011;37283;49.760;8.648;2022-07-29T15:38:06;5.00;;;2.40;;
51216;SDS011;37283;49.760;8.648;2022-07-29T15:40:33;8.18;;;2.20;;
51216;SDS011;37283;49.760;8.648;2022-07-29T15:43:01;4.53;;;2.10;;
51216;SDS011;37283;49.760;8.648;2022-07-29T15:45:38;3.90;;;1.83;;